createdAt,value
2018-03-27T00:01:13.938Z,8.40
2018-03-27T00:03:40.169Z,8.40
2018-03-27T00:06:06.367Z,8.30
2018-03-27T00:08:32.614Z,8.20
2018-03-27T00:10:58.919Z,8.20
2018-03-27T00:13:25.125Z,8.30
2018-03-27T00:15:51.347Z,8.30
2018-03-27T00:18:17.594Z,8.30
2018-03-27T00:20:43.802Z,8.20
2018-03-27T00:23:09.994Z,8.20
2018-03-27T00:25:36.195Z,8.20
2018-03-27T00:28:14.565Z,8.30
2018-03-27T00:30:53.656Z,8.30
2018-03-27T00:33:32.023Z,8.20
2018-03-27T00:36:10.539Z,8.30
2018-03-27T00:38:49.029Z,8.30
2018-03-27T00:44:19.760Z,8.30
2018-03-27T00:46:45.992Z,8.20
2018-03-27T00:49:12.144Z,8.20
2018-03-27T00:51:39.147Z,8.10
2018-03-27T00:54:05.417Z,8.10
2018-03-27T00:56:31.608Z,8.10
2018-03-27T00:58:57.829Z,8.00
2018-03-27T01:01:24.072Z,8.10
2018-03-27T01:03:50.251Z,8.00
2018-03-27T01:06:18.549Z,8.00
2018-03-27T01:08:44.800Z,7.90
2018-03-27T01:11:11.053Z,7.90
2018-03-27T01:13:37.247Z,7.90
2018-03-27T01:16:03.545Z,7.80
2018-03-27T01:18:29.729Z,7.90
2018-03-27T01:20:55.900Z,7.80
2018-03-27T01:23:22.178Z,7.80
2018-03-27T01:25:48.388Z,7.80
2018-03-27T01:28:14.610Z,7.80
2018-03-27T01:30:40.862Z,7.80
2018-03-27T01:33:07.103Z,7.80
2018-03-27T01:35:34.052Z,7.80
2018-03-27T01:38:00.298Z,7.80
2018-03-27T01:40:26.524Z,7.80
2018-03-27T01:42:53.489Z,7.90
2018-03-27T01:45:19.689Z,7.80
2018-03-27T01:47:46.627Z,7.90
2018-03-27T01:50:12.800Z,7.90
2018-03-27T01:52:39.033Z,7.90
2018-03-27T01:55:05.274Z,7.90
2018-03-27T01:57:31.480Z,7.90
2018-03-27T01:59:57.717Z,7.80
2018-03-27T02:02:23.931Z,7.80
2018-03-27T02:04:50.129Z,7.80
2018-03-27T02:07:16.376Z,7.70
2018-03-27T02:09:42.637Z,7.70
2018-03-27T02:12:14.970Z,7.70
2018-03-27T02:14:47.424Z,7.60
2018-03-27T02:17:19.762Z,7.50
2018-03-27T02:19:52.232Z,7.50
2018-03-27T02:22:18.514Z,7.50
2018-03-27T02:24:44.756Z,7.60
2018-03-27T02:27:10.981Z,7.50
2018-03-27T02:29:37.214Z,7.50
2018-03-27T02:32:03.448Z,7.50
2018-03-27T02:34:29.837Z,7.50
2018-03-27T02:36:56.817Z,7.40
2018-03-27T02:39:23.046Z,7.30
2018-03-27T02:41:49.552Z,7.30
2018-03-27T02:44:15.804Z,7.30
2018-03-27T02:46:42.035Z,7.20
2018-03-27T02:49:08.418Z,7.20
2018-03-27T02:51:34.759Z,7.10
2018-03-27T02:54:01.034Z,7.10
2018-03-27T02:56:27.262Z,7.00
2018-03-27T02:58:53.509Z,7.00
2018-03-27T03:01:19.777Z,7.00
2018-03-27T03:03:46.807Z,6.90
2018-03-27T03:06:13.010Z,6.90
2018-03-27T03:08:39.281Z,6.90
2018-03-27T03:11:05.505Z,6.90
2018-03-27T03:13:31.689Z,6.80
2018-03-27T03:15:57.966Z,6.80
2018-03-27T03:18:25.167Z,6.80
2018-03-27T03:20:51.577Z,6.70
2018-03-27T03:23:17.815Z,6.60
2018-03-27T03:25:44.023Z,6.60
2018-03-27T03:28:10.257Z,6.50
2018-03-27T03:30:36.653Z,6.30
2018-03-27T03:33:02.863Z,6.30
2018-03-27T03:35:29.089Z,6.30
2018-03-27T03:37:55.431Z,6.20
2018-03-27T03:40:21.637Z,6.20
2018-03-27T03:42:47.853Z,6.00
2018-03-27T03:45:14.061Z,6.00
2018-03-27T03:47:40.316Z,6.00
2018-03-27T03:50:06.521Z,6.00
2018-03-27T03:52:32.772Z,6.00
2018-03-27T03:54:58.967Z,6.00
2018-03-27T03:57:25.186Z,6.00
2018-03-27T03:59:51.428Z,6.00
2018-03-27T04:02:17.645Z,6.00
2018-03-27T04:04:43.859Z,6.00
2018-03-27T04:07:10.096Z,6.10
2018-03-27T04:09:36.281Z,6.10
2018-03-27T04:12:02.467Z,6.00
2018-03-27T04:14:28.698Z,6.00
2018-03-27T04:16:54.905Z,6.00
2018-03-27T04:19:21.109Z,5.90
2018-03-27T04:21:48.137Z,5.80
2018-03-27T04:24:14.385Z,5.80
2018-03-27T04:26:40.567Z,5.80
2018-03-27T04:29:06.816Z,5.80
2018-03-27T04:31:33.039Z,5.80
2018-03-27T04:33:59.273Z,5.80
2018-03-27T04:36:25.521Z,5.80
2018-03-27T04:38:51.770Z,5.60
2018-03-27T04:41:18.010Z,5.60
2018-03-27T04:43:44.316Z,5.50
2018-03-27T04:46:11.545Z,5.50
2018-03-27T04:48:37.777Z,5.60
2018-03-27T04:51:04.024Z,5.60
2018-03-27T04:53:30.248Z,5.70
2018-03-27T04:55:56.412Z,5.80
2018-03-27T04:58:22.647Z,5.70
2018-03-27T05:00:48.846Z,5.70
2018-03-27T05:03:15.806Z,5.70
2018-03-27T05:05:42.049Z,5.70
2018-03-27T05:08:08.224Z,5.70
2018-03-27T05:10:34.469Z,5.70
2018-03-27T05:13:00.701Z,5.70
2018-03-27T05:15:27.713Z,5.80
2018-03-27T05:17:53.979Z,5.80
2018-03-27T05:20:20.928Z,5.90
2018-03-27T05:22:47.902Z,5.80
2018-03-27T05:25:14.121Z,5.70
2018-03-27T05:27:40.312Z,5.60
2018-03-27T05:30:06.523Z,5.60
2018-03-27T05:32:32.709Z,5.60
2018-03-27T05:34:58.932Z,5.60
2018-03-27T05:37:25.139Z,5.70
2018-03-27T05:39:52.080Z,5.70
2018-03-27T05:42:19.040Z,5.60
2018-03-27T05:44:45.343Z,5.60
2018-03-27T05:47:11.610Z,5.60
2018-03-27T05:49:37.825Z,5.70
2018-03-27T05:52:04.201Z,5.80
2018-03-27T05:54:30.428Z,5.80
2018-03-27T05:56:56.665Z,5.90
2018-03-27T05:59:22.852Z,6.00
2018-03-27T06:01:49.125Z,6.00
2018-03-27T06:04:15.326Z,6.10
2018-03-27T06:06:41.558Z,6.10
2018-03-27T06:09:08.000Z,6.20
2018-03-27T06:11:34.283Z,6.20
2018-03-27T06:14:00.574Z,6.20
2018-03-27T06:16:26.831Z,6.20
2018-03-27T06:18:53.881Z,6.20
2018-03-27T06:21:20.863Z,6.20
2018-03-27T06:23:47.109Z,6.20
2018-03-27T06:26:13.423Z,6.20
2018-03-27T06:28:39.626Z,6.30
2018-03-27T06:31:05.841Z,6.30
2018-03-27T06:33:32.119Z,6.30
2018-03-27T06:35:58.343Z,6.30
2018-03-27T06:38:24.588Z,6.30
2018-03-27T06:40:50.839Z,6.40
2018-03-27T06:43:17.057Z,6.30
2018-03-27T06:45:43.287Z,6.40
2018-03-27T06:48:09.568Z,6.40
2018-03-27T06:50:35.797Z,6.50
2018-03-27T06:53:01.990Z,6.50
2018-03-27T06:55:28.277Z,6.60
2018-03-27T06:57:54.505Z,6.60
2018-03-27T07:00:20.736Z,6.70
2018-03-27T07:02:46.983Z,6.70
2018-03-27T07:05:13.224Z,6.80
2018-03-27T07:07:39.459Z,6.90
2018-03-27T07:10:05.660Z,6.90
2018-03-27T07:12:31.924Z,6.90
2018-03-27T07:14:58.127Z,7.00
2018-03-27T07:17:24.402Z,7.00
2018-03-27T07:19:50.644Z,7.00
2018-03-27T07:22:16.901Z,7.00
2018-03-27T07:24:43.097Z,7.00
2018-03-27T07:27:09.271Z,7.00
2018-03-27T07:29:35.504Z,7.00
2018-03-27T07:32:01.730Z,7.00
2018-03-27T07:34:28.688Z,7.10
2018-03-27T07:36:55.702Z,7.20
2018-03-27T07:39:21.940Z,7.10
2018-03-27T07:41:48.177Z,7.10
2018-03-27T07:44:14.496Z,7.20
2018-03-27T07:46:40.752Z,7.20
2018-03-27T07:49:07.696Z,7.20
2018-03-27T07:51:34.707Z,7.30
2018-03-27T07:54:00.913Z,7.30
2018-03-27T07:56:27.128Z,7.40
2018-03-27T07:58:53.344Z,7.40
2018-03-27T08:01:19.593Z,7.50
2018-03-27T08:03:45.809Z,7.70
2018-03-27T08:06:12.054Z,7.80
2018-03-27T08:08:40.361Z,7.90
2018-03-27T08:11:06.757Z,8.00
2018-03-27T08:13:33.067Z,8.10
2018-03-27T08:16:02.434Z,8.10
2018-03-27T08:18:28.780Z,8.10
2018-03-27T08:21:02.316Z,8.10
2018-03-27T08:23:33.666Z,8.10
2018-03-27T08:26:00.144Z,8.20
2018-03-27T08:28:26.501Z,8.30
2018-03-27T08:30:56.228Z,8.30
2018-03-27T08:33:31.627Z,8.40
2018-03-27T08:35:58.374Z,8.40
2018-03-27T08:38:24.619Z,8.50
2018-03-27T08:40:51.628Z,8.50
2018-03-27T08:43:17.873Z,8.50
2018-03-27T08:45:44.258Z,8.60
2018-03-27T08:48:10.517Z,8.60
2018-03-27T08:50:36.750Z,8.60
2018-03-27T08:53:02.994Z,8.70
2018-03-27T08:55:29.212Z,8.70
2018-03-27T08:57:55.562Z,8.80
2018-03-27T09:00:22.842Z,8.70
2018-03-27T09:02:51.627Z,8.80
2018-03-27T09:05:29.338Z,8.80
2018-03-27T09:07:56.543Z,8.80
2018-03-27T09:10:23.942Z,8.80
2018-03-27T09:12:50.425Z,8.80
2018-03-27T09:15:16.694Z,8.80
2018-03-27T09:17:42.937Z,8.80
2018-03-27T09:20:09.183Z,8.80
2018-03-27T09:22:35.408Z,8.80
2018-03-27T09:25:01.746Z,8.80
2018-03-27T09:27:27.966Z,8.80
2018-03-27T09:29:54.261Z,8.80
2018-03-27T09:32:20.464Z,8.80
2018-03-27T09:34:46.707Z,8.80
2018-03-27T09:37:13.663Z,8.90
2018-03-27T09:39:39.860Z,8.90
2018-03-27T09:42:06.064Z,8.90
2018-03-27T09:44:32.291Z,9.00
2018-03-27T09:46:58.649Z,9.00
2018-03-27T09:49:24.828Z,9.00
2018-03-27T09:51:51.088Z,9.00
2018-03-27T09:54:17.330Z,9.10
2018-03-27T09:56:44.358Z,9.20
2018-03-27T09:59:10.641Z,9.10
2018-03-27T10:01:38.719Z,9.20
2018-03-27T10:04:05.028Z,9.20
2018-03-27T10:06:31.270Z,9.20
2018-03-27T10:08:57.517Z,9.20
2018-03-27T10:11:25.820Z,9.30
2018-03-27T10:13:52.080Z,9.30
2018-03-27T10:16:19.044Z,9.40
2018-03-27T10:18:45.296Z,9.30
2018-03-27T10:21:11.572Z,9.40
2018-03-27T10:23:37.855Z,9.40
2018-03-27T10:26:04.044Z,9.50
2018-03-27T10:28:30.993Z,9.50
2018-03-27T10:30:57.200Z,9.50
2018-03-27T10:33:24.159Z,9.60
2018-03-27T10:35:51.113Z,9.70
2018-03-27T10:38:17.512Z,9.60
2018-03-27T10:40:43.778Z,9.70
2018-03-27T10:43:09.946Z,9.70
2018-03-27T10:45:36.211Z,9.80
2018-03-27T10:48:03.362Z,9.90
2018-03-27T10:50:29.718Z,10.10
2018-03-27T10:52:56.245Z,10.30
2018-03-27T10:55:23.193Z,10.80
2018-03-27T10:57:51.539Z,11.10
2018-03-27T11:00:19.584Z,11.20
2018-03-27T11:02:45.817Z,11.10
2018-03-27T11:05:12.034Z,11.30
2018-03-27T11:07:39.212Z,11.30
2018-03-27T11:10:06.225Z,11.40
2018-03-27T11:12:32.457Z,11.40
2018-03-27T11:14:58.660Z,11.50
2018-03-27T11:17:24.887Z,11.60
2018-03-27T11:19:51.095Z,11.90
2018-03-27T11:22:18.046Z,12.50
2018-03-27T11:24:45.030Z,12.50
2018-03-27T11:27:11.260Z,12.50
2018-03-27T11:29:37.478Z,12.50
2018-03-27T11:32:03.706Z,12.50
2018-03-27T11:34:29.960Z,12.60
2018-03-27T11:36:56.133Z,12.70
2018-03-27T11:39:23.080Z,12.90
2018-03-27T11:41:49.964Z,12.90
2018-03-27T11:44:16.185Z,12.80
2018-03-27T11:46:42.401Z,13.00
2018-03-27T11:49:08.587Z,12.90
2018-03-27T11:51:36.810Z,12.90
2018-03-27T11:54:03.113Z,12.90
2018-03-27T11:56:30.068Z,13.00
2018-03-27T11:58:56.330Z,12.90
2018-03-27T12:01:22.553Z,12.90
2018-03-27T12:03:48.773Z,12.90
2018-03-27T12:06:15.046Z,12.90
2018-03-27T12:08:41.281Z,12.80
2018-03-27T12:11:07.937Z,12.90
2018-03-27T12:13:34.398Z,12.90
2018-03-27T12:16:00.628Z,12.90
2018-03-27T12:18:26.866Z,12.80
2018-03-27T12:20:53.075Z,12.80
2018-03-27T12:23:19.284Z,12.70
2018-03-27T12:25:46.303Z,12.70
2018-03-27T12:28:13.308Z,12.70
2018-03-27T12:30:40.498Z,12.60
2018-03-27T12:33:08.088Z,12.70
2018-03-27T12:35:34.320Z,12.60
2018-03-27T12:38:00.574Z,12.50
2018-03-27T12:40:26.776Z,12.50
2018-03-27T12:42:52.972Z,12.50
2018-03-27T12:45:19.169Z,12.50
2018-03-27T12:47:45.441Z,12.50
2018-03-27T12:50:13.553Z,12.50
2018-03-27T12:52:39.824Z,12.50
2018-03-27T12:55:06.070Z,12.60
2018-03-27T12:57:33.011Z,12.70
2018-03-27T13:00:00.021Z,12.80
2018-03-27T13:02:26.244Z,12.70
2018-03-27T13:04:52.490Z,12.80
2018-03-27T13:07:18.734Z,12.80
2018-03-27T13:09:44.961Z,12.80
2018-03-27T13:12:11.156Z,12.80
2018-03-27T13:14:37.401Z,12.80
2018-03-27T13:19:51.037Z,12.90
2018-03-27T13:22:17.270Z,12.90
2018-03-27T13:24:43.520Z,12.90
2018-03-27T13:27:09.878Z,12.90
2018-03-27T13:29:36.857Z,12.90
2018-03-27T13:32:03.715Z,12.90
2018-03-27T13:34:32.519Z,12.90
2018-03-27T13:37:12.435Z,12.80
2018-03-27T13:39:43.701Z,12.80
2018-03-27T13:42:14.100Z,12.80
2018-03-27T13:44:49.175Z,12.90
2018-03-27T13:47:32.373Z,12.90
2018-03-27T13:50:05.980Z,12.90
2018-03-27T13:52:34.035Z,12.90
2018-03-27T13:57:58.784Z,12.90
2018-03-27T14:00:32.903Z,12.80
2018-03-27T14:03:01.464Z,12.80
2018-03-27T14:05:34.460Z,12.80
2018-03-27T14:08:32.940Z,12.80
2018-03-27T14:14:09.104Z,12.70
2018-03-27T14:16:37.162Z,12.60
2018-03-27T14:19:04.415Z,12.60
2018-03-27T14:24:54.095Z,12.50
2018-03-27T14:27:22.299Z,12.60
2018-03-27T14:33:01.118Z,12.50
2018-03-27T14:35:29.835Z,12.50
2018-03-27T14:37:58.540Z,12.60
2018-03-27T14:40:24.889Z,12.50
2018-03-27T14:42:55.838Z,12.50
2018-03-27T14:47:56.700Z,12.50
2018-03-27T14:56:18.478Z,12.50
2018-03-27T14:58:44.993Z,12.50
2018-03-27T15:01:11.269Z,12.40
2018-03-27T15:03:37.458Z,12.50
2018-03-27T15:06:04.487Z,12.40
2018-03-27T15:08:30.742Z,12.40
2018-03-27T15:10:56.918Z,12.30
2018-03-27T15:13:23.113Z,12.30
2018-03-27T15:15:49.306Z,12.40
2018-03-27T15:18:33.684Z,12.40
2018-03-27T15:20:59.923Z,12.40
2018-03-27T15:23:26.125Z,12.40
2018-03-27T15:25:53.108Z,12.40
2018-03-27T15:28:19.344Z,12.30
2018-03-27T15:30:45.577Z,12.40
2018-03-27T15:33:11.814Z,12.40
2018-03-27T15:35:38.013Z,12.40
2018-03-27T15:38:04.302Z,12.40
2018-03-27T15:40:31.260Z,12.30
2018-03-27T15:42:57.505Z,12.30
2018-03-27T15:45:23.721Z,12.30
2018-03-27T15:47:50.019Z,12.30
2018-03-27T15:50:16.231Z,12.20
2018-03-27T15:52:42.504Z,12.20
2018-03-27T15:55:08.831Z,12.10
2018-03-27T15:57:35.164Z,12.10
2018-03-27T16:00:01.440Z,12.20
2018-03-27T16:02:27.709Z,12.20
2018-03-27T16:04:54.647Z,12.00
2018-03-27T16:07:21.625Z,12.10
2018-03-27T16:09:47.878Z,12.00
2018-03-27T16:12:14.130Z,12.00
2018-03-27T16:14:40.394Z,12.00
2018-03-27T16:17:07.346Z,12.00
2018-03-27T16:19:33.559Z,12.00
2018-03-27T16:22:00.537Z,11.90
2018-03-27T16:24:26.733Z,11.80
2018-03-27T16:26:53.688Z,11.80
2018-03-27T16:29:19.858Z,11.80
2018-03-27T16:31:46.058Z,11.80
2018-03-27T16:34:12.297Z,11.80
2018-03-27T16:36:38.495Z,11.80
2018-03-27T16:39:04.719Z,11.70
2018-03-27T16:41:30.966Z,11.60
2018-03-27T16:43:57.611Z,11.60
2018-03-27T16:46:24.004Z,11.60
2018-03-27T16:48:50.996Z,11.40
2018-03-27T16:51:17.199Z,11.30
2018-03-27T16:53:43.474Z,11.20
2018-03-27T16:56:09.692Z,11.20
2018-03-27T16:58:35.941Z,11.10
2018-03-27T17:01:02.188Z,11.00
2018-03-27T17:03:29.173Z,10.70
2018-03-27T17:05:55.424Z,10.70
2018-03-27T17:08:21.662Z,10.70
2018-03-27T17:10:47.897Z,10.50
2018-03-27T17:13:14.149Z,10.50
2018-03-27T17:15:42.193Z,10.50
2018-03-27T17:18:08.408Z,10.50
2018-03-27T17:20:34.604Z,10.50
2018-03-27T17:23:00.832Z,10.50
2018-03-27T17:25:27.093Z,10.40
2018-03-27T17:27:53.353Z,10.40
2018-03-27T17:30:19.572Z,10.40
2018-03-27T17:32:45.773Z,10.40
2018-03-27T17:35:12.018Z,10.30
2018-03-27T17:37:38.275Z,10.20
2018-03-27T17:40:05.410Z,10.20
2018-03-27T17:42:31.621Z,10.20
2018-03-27T17:44:57.828Z,10.10
2018-03-27T17:47:24.071Z,10.00
2018-03-27T17:49:50.333Z,10.10
2018-03-27T17:52:16.561Z,10.00
2018-03-27T17:54:42.808Z,9.90
2018-03-27T17:57:09.033Z,9.70
2018-03-27T17:59:36.060Z,9.70
2018-03-27T18:02:02.284Z,9.70
2018-03-27T18:04:29.283Z,9.50
2018-03-27T18:06:55.613Z,9.50
2018-03-27T18:09:21.883Z,9.50
2018-03-27T18:11:48.112Z,9.40
2018-03-27T18:14:14.425Z,9.30
2018-03-27T18:16:40.634Z,9.40
2018-03-27T18:19:06.809Z,9.40
2018-03-27T18:21:33.055Z,9.30
2018-03-27T18:24:00.022Z,9.20
2018-03-27T18:26:26.243Z,9.20
2018-03-27T18:28:52.633Z,9.10
2018-03-27T18:31:18.864Z,9.10
2018-03-27T18:33:45.074Z,9.10
2018-03-27T18:36:11.266Z,9.00
2018-03-27T18:38:37.564Z,8.90
2018-03-27T18:41:03.787Z,8.80
2018-03-27T18:43:29.989Z,8.90
2018-03-27T18:45:56.168Z,8.90
2018-03-27T18:48:22.405Z,8.90
2018-03-27T18:50:48.627Z,8.80
2018-03-27T18:53:14.916Z,8.80
2018-03-27T18:55:41.136Z,8.80
2018-03-27T18:58:07.475Z,8.80
2018-03-27T19:00:33.750Z,8.70
2018-03-27T19:03:00.050Z,8.80
2018-03-27T19:05:27.044Z,8.80
2018-03-27T19:07:53.336Z,8.70
2018-03-27T19:10:19.556Z,8.70
2018-03-27T19:12:46.584Z,8.70
2018-03-27T19:15:13.596Z,8.70
2018-03-27T19:17:39.894Z,8.60
2018-03-27T19:20:06.201Z,8.70
2018-03-27T19:22:32.590Z,8.80
2018-03-27T19:24:58.919Z,8.70
2018-03-27T19:27:25.202Z,8.70
2018-03-27T19:29:52.288Z,8.60
2018-03-27T19:32:18.578Z,8.60
2018-03-27T19:34:44.874Z,8.60
2018-03-27T19:37:11.084Z,8.60
2018-03-27T19:39:37.444Z,8.60
2018-03-27T19:42:03.749Z,8.60
2018-03-27T19:44:30.004Z,8.70
2018-03-27T19:46:56.251Z,8.70
2018-03-27T19:49:22.664Z,8.70
2018-03-27T19:51:48.910Z,8.70
2018-03-27T19:54:15.179Z,8.70
2018-03-27T19:56:41.377Z,8.70
2018-03-27T19:59:07.599Z,8.70
2018-03-27T20:01:34.555Z,8.80
2018-03-27T20:04:00.802Z,8.80
2018-03-27T20:06:27.092Z,8.80
2018-03-27T20:08:54.096Z,8.80
2018-03-27T20:11:20.312Z,8.80
2018-03-27T20:13:46.566Z,8.80
2018-03-27T20:16:12.845Z,8.70
2018-03-27T20:18:39.786Z,8.60
2018-03-27T20:21:06.016Z,8.60
2018-03-27T20:23:32.318Z,8.70
2018-03-27T20:25:58.668Z,8.70
2018-03-27T20:28:24.878Z,8.60
2018-03-27T20:30:51.157Z,8.60
2018-03-27T20:33:17.441Z,8.60
2018-03-27T20:35:43.639Z,8.60
2018-03-27T20:38:09.872Z,8.50
2018-03-27T20:40:36.092Z,8.50
2018-03-27T20:43:02.310Z,8.50
2018-03-27T20:45:28.599Z,8.40
2018-03-27T20:47:55.582Z,8.40
2018-03-27T20:50:21.814Z,8.40
2018-03-27T20:52:48.028Z,8.40
2018-03-27T20:55:14.316Z,8.50
2018-03-27T20:57:40.556Z,8.40
2018-03-27T21:00:06.845Z,8.40
2018-03-27T21:02:33.070Z,8.60
2018-03-27T21:05:00.076Z,8.60
2018-03-27T21:07:26.320Z,8.50
2018-03-27T21:09:52.521Z,8.60
2018-03-27T21:12:18.749Z,8.60
2018-03-27T21:14:45.726Z,8.60
2018-03-27T21:37:37.360Z,8.60
2018-03-27T21:40:05.709Z,8.60
2018-03-27T21:42:32.639Z,8.50
2018-03-27T21:44:58.841Z,8.50
2018-03-27T21:47:25.060Z,8.60
2018-03-27T21:49:51.317Z,8.60
2018-03-27T21:52:17.599Z,8.50
2018-03-27T21:54:43.840Z,8.50
2018-03-27T21:57:10.076Z,8.60
2018-03-27T21:59:36.341Z,8.60
2018-03-27T22:02:03.350Z,8.70
2018-03-27T22:04:29.576Z,8.70
2018-03-27T22:06:55.862Z,8.70
2018-03-27T22:09:22.853Z,8.50
2018-03-27T22:11:49.055Z,8.50
2018-03-27T22:14:15.289Z,8.60
2018-03-27T22:16:41.506Z,8.60
2018-03-27T22:19:07.738Z,8.70
2018-03-27T22:21:33.990Z,8.70
2018-03-27T22:24:00.231Z,8.70
2018-03-27T22:26:26.466Z,8.80
2018-03-27T22:28:53.440Z,8.80
2018-03-27T22:31:20.431Z,8.90
2018-03-27T22:33:46.621Z,8.80
2018-03-27T22:36:12.862Z,8.90
2018-03-27T22:38:39.077Z,8.80
2018-03-27T22:41:05.307Z,8.80
2018-03-27T22:43:31.513Z,8.80
2018-03-27T22:45:57.769Z,8.80
2018-03-27T22:48:24.040Z,8.90
2018-03-27T22:50:50.314Z,8.90
2018-03-27T22:53:16.528Z,8.90
2018-03-27T22:55:43.585Z,8.90
2018-03-27T22:58:09.786Z,8.90
2018-03-27T23:00:36.032Z,8.90
2018-03-27T23:03:04.077Z,8.90
2018-03-27T23:05:30.272Z,8.80
2018-03-27T23:07:56.495Z,8.80
2018-03-27T23:10:22.838Z,8.90
2018-03-27T23:12:49.080Z,8.80
2018-03-27T23:15:15.309Z,8.80
2018-03-27T23:17:41.536Z,8.70
2018-03-27T23:20:07.730Z,8.70
2018-03-27T23:22:33.934Z,8.80
2018-03-27T23:25:00.232Z,8.80
2018-03-27T23:27:26.457Z,8.70
2018-03-27T23:29:52.700Z,8.60
2018-03-27T23:32:18.902Z,8.60
2018-03-27T23:34:45.171Z,8.60
2018-03-27T23:37:11.420Z,8.50
2018-03-27T23:39:37.655Z,8.50
2018-03-27T23:42:03.933Z,8.50
2018-03-27T23:44:30.193Z,8.50
2018-03-27T23:46:57.123Z,8.60
2018-03-27T23:49:23.355Z,8.50
2018-03-27T23:51:50.285Z,8.60
2018-03-27T23:54:16.533Z,8.50
2018-03-27T23:56:43.499Z,8.50
2018-03-27T23:59:09.722Z,8.50
